Time;durP1;ratioP1;P1;durP2;ratioP2;P2;SDS_P1;SDS_P2;PMS_P1;PMS_P2;Temp;Humidity;BMP_temperature;BMP_pressure;BME280_temperature;BME280_humidity;BME280_pressure;Samples;Min_cycle;Max_cycle;Signal;HPM_P1;HPM_P2
2022/05/28 00:00:12;;;;;;;4.30;1.25;;;11.40;75.50;;;;;;5065917;28;20055;-74
2022/05/28 00:02:38;;;;;;;3.67;1.10;;;11.40;75.60;;;;;;5070057;28;20045;-74
2022/05/28 00:05:06;;;;;;;3.13;1.23;;;11.40;76.00;;;;;;5050873;28;20048;-72
2022/05/28 00:07:32;;;;;;;3.47;1.40;;;11.40;76.80;;;;;;5066909;28;20032;-73
2022/05/28 00:09:59;;;;;;;3.22;1.08;;;11.30;76.40;;;;;;5068682;28;20044;-72
2022/05/28 00:12:29;;;;;;;1.98;1.10;;;11.30;76.60;;;;;;5067914;28;20412;-73
2022/05/28 00:14:56;;;;;;;3.93;1.20;;;11.20;76.90;;;;;;5071517;28;20508;-73
2022/05/28 00:17:23;;;;;;;1.85;1.30;;;11.10;76.60;;;;;;5064248;28;20029;-75
2022/05/28 00:19:50;;;;;;;2.83;1.50;;;11.20;76.80;;;;;;5069804;28;20393;-73
2022/05/28 00:22:17;;;;;;;4.50;0.90;;;11.10;77.20;;;;;;5067974;28;20025;-73
2022/05/28 00:24:43;;;;;;;2.33;1.58;;;11.00;76.80;;;;;;5065814;28;20037;-73
2022/05/28 00:27:09;;;;;;;6.97;1.20;;;11.00;77.00;;;;;;5065996;28;20021;-75
2022/05/28 00:29:35;;;;;;;1.80;1.48;;;11.00;77.30;;;;;;5070104;28;20052;-72
2022/05/28 00:32:02;;;;;;;1.85;1.55;;;10.90;77.70;;;;;;5071975;28;20029;-73
2022/05/28 00:34:29;;;;;;;4.78;1.70;;;10.80;78.40;;;;;;5073573;28;20039;-74
2022/05/28 00:36:55;;;;;;;3.58;0.90;;;10.80;79.20;;;;;;5062099;28;20051;-73
2022/05/28 00:39:21;;;;;;;2.88;1.10;;;10.70;79.80;;;;;;5062599;28;20040;-72
2022/05/28 00:41:48;;;;;;;4.55;1.70;;;10.70;81.20;;;;;;5065891;28;20035;-73
2022/05/28 00:44:14;;;;;;;2.20;1.17;;;10.70;80.60;;;;;;5067823;28;20408;-74
2022/05/28 00:46:42;;;;;;;3.38;1.40;;;10.70;81.30;;;;;;5071389;28;20382;-73
2022/05/28 00:49:13;;;;;;;4.15;1.48;;;10.60;81.30;;;;;;5071455;28;20481;-73
2022/05/28 00:51:45;;;;;;;2.42;1.08;;;10.50;82.20;;;;;;5070918;28;20032;-73
2022/05/28 00:54:12;;;;;;;4.05;1.35;;;10.50;82.70;;;;;;5068444;28;20029;-74
2022/05/28 00:56:39;;;;;;;3.67;1.25;;;10.40;83.80;;;;;;5068273;28;20053;-73
2022/05/28 00:59:07;;;;;;;3.42;1.08;;;10.30;85.60;;;;;;5072184;28;20498;-73
2022/05/28 01:01:36;;;;;;;5.60;2.20;;;10.30;86.20;;;;;;5069799;28;20457;-74
2022/05/28 01:04:19;;;;;;;4.43;1.20;;;10.20;85.90;;;;;;5073574;28;20032;-74
2022/05/28 01:07:08;;;;;;;3.95;1.27;;;10.20;86.90;;;;;;5074298;28;20373;-74
2022/05/28 01:09:58;;;;;;;1.33;0.65;;;10.10;87.50;;;;;;5070029;28;20051;-74
2022/05/28 01:13:06;;;;;;;4.00;2.20;;;10.10;87.90;;;;;;5069275;28;20032;-73
2022/05/28 01:15:38;;;;;;;5.90;1.60;;;10.00;88.30;;;;;;5064369;28;20056;-72
2022/05/28 01:18:19;;;;;;;1.70;1.23;;;10.00;88.80;;;;;;5067371;28;20045;-73
2022/05/28 01:20:50;;;;;;;4.45;1.83;;;10.00;89.20;;;;;;5066572;28;20051;-74
2022/05/28 01:23:47;;;;;;;2.75;1.27;;;9.90;89.90;;;;;;5066400;28;20044;-73
2022/05/28 01:26:31;;;;;;;3.30;1.27;;;9.90;90.20;;;;;;5065287;28;20385;-75
2022/05/28 01:29:01;;;;;;;2.05;1.08;;;10.00;90.50;;;;;;5061738;28;20474;-74
2022/05/28 01:31:29;;;;;;;3.22;1.17;;;9.80;90.70;;;;;;5063914;28;20422;-74
2022/05/28 01:33:57;;;;;;;2.85;1.42;;;9.60;91.40;;;;;;5061005;28;20029;-73
2022/05/28 01:36:25;;;;;;;2.50;1.33;;;9.40;92.60;;;;;;5071817;28;20385;-73
2022/05/28 01:38:53;;;;;;;3.13;1.30;;;9.10;93.80;;;;;;5063674;28;20032;-74
2022/05/28 01:41:19;;;;;;;2.70;1.02;;;9.00;95.10;;;;;;5061647;28;20040;-72
2022/05/28 01:43:48;;;;;;;3.05;1.40;;;9.10;95.30;;;;;;5072225;28;20044;-73
2022/05/28 01:46:17;;;;;;;3.28;1.35;;;9.00;94.80;;;;;;5069456;28;20032;-74
2022/05/28 01:48:45;;;;;;;2.92;1.40;;;8.90;95.20;;;;;;5069731;28;20029;-73
2022/05/28 01:51:13;;;;;;;3.53;1.13;;;8.90;95.80;;;;;;5070044;28;20024;-75
2022/05/28 01:56:27;;;;;;;3.47;1.40;;;8.80;95.80;;;;;;5071327;28;20508;-73
2022/05/28 01:58:53;;;;;;;2.53;1.42;;;8.70;96.20;;;;;;5053806;28;20029;-73
2022/05/28 02:01:20;;;;;;;2.83;1.15;;;8.60;96.60;;;;;;5070583;28;20458;-73
2022/05/28 02:03:51;;;;;;;2.67;1.77;;;8.60;96.80;;;;;;5068727;28;20035;-73
2022/05/28 02:06:17;;;;;;;;;;;8.50;97.20;;;;;;5069568;28;20048;-74
2022/05/28 02:08:46;;;;;;;6.13;1.45;;;8.50;97.40;;;;;;5067462;28;19909;-72
2022/05/28 02:11:16;;;;;;;3.92;1.73;;;8.50;97.60;;;;;;5071262;28;20048;-77
2022/05/28 02:13:46;;;;;;;6.00;1.60;;;8.50;97.80;;;;;;5072540;28;20044;-74
2022/05/28 02:16:21;;;;;;;3.60;1.50;;;8.40;98.30;;;;;;5068904;28;20035;-75
2022/05/28 02:18:58;;;;;;;2.33;1.27;;;8.20;99.10;;;;;;5063474;28;20033;-73
2022/05/28 02:21:42;;;;;;;2.45;1.38;;;8.20;99.80;;;;;;5052543;28;20385;-73
2022/05/28 02:24:18;;;;;;;2.63;1.42;;;8.10;99.50;;;;;;5065342;28;20028;-73
2022/05/28 02:26:49;;;;;;;7.97;2.22;;;8.00;99.90;;;;;;5069300;28;20048;-74
2022/05/28 02:29:16;;;;;;;4.05;1.40;;;7.90;99.90;;;;;;5043433;28;20037;-72
2022/05/28 02:31:45;;;;;;;2.55;1.35;;;8.00;99.90;;;;;;5067547;28;20035;-73
2022/05/28 02:34:12;;;;;;;6.35;1.80;;;8.10;99.90;;;;;;5069972;28;20048;-75
2022/05/28 02:36:39;;;;;;;2.80;1.75;;;8.20;99.60;;;;;;5066553;28;20037;-73
2022/05/28 02:39:06;;;;;;;2.08;1.20;;;8.20;99.60;;;;;;5059486;28;20029;-73
2022/05/28 02:41:32;;;;;;;4.80;1.80;;;8.20;99.50;;;;;;5063821;28;20033;-73
2022/05/28 02:43:58;;;;;;;3.10;1.20;;;8.10;99.60;;;;;;5065745;28;20032;-73
2022/05/28 02:46:25;;;;;;;6.20;1.80;;;8.10;99.90;;;;;;5064139;28;20040;-74
2022/05/28 02:48:51;;;;;;;1.40;0.88;;;8.10;99.80;;;;;;5062426;28;20040;-73
2022/05/28 02:51:21;;;;;;;1.77;1.00;;;8.00;99.90;;;;;;5069222;28;20029;-73
2022/05/28 02:53:49;;;;;;;3.15;1.20;;;8.00;99.90;;;;;;5069590;28;20028;-73
2022/05/28 02:56:15;;;;;;;4.70;2.03;;;7.90;99.90;;;;;;5070856;28;20063;-76
2022/05/28 02:58:41;;;;;;;2.45;1.55;;;7.80;99.90;;;;;;5070669;28;20469;-74
2022/05/28 03:01:29;;;;;;;7.00;1.60;;;7.70;99.90;;;;;;5047885;28;20048;-73
2022/05/28 03:03:55;;;;;;;2.65;1.00;;;7.50;99.90;;;;;;5062743;28;20076;-73
2022/05/28 03:06:22;;;;;;;2.28;1.33;;;7.40;99.90;;;;;;5070990;28;20037;-73
2022/05/28 03:08:48;;;;;;;3.08;1.67;;;7.40;99.90;;;;;;5068149;28;20036;-73
2022/05/28 03:11:15;;;;;;;3.10;1.60;;;7.50;99.90;;;;;;5067119;28;20044;-76
2022/05/28 03:13:41;;;;;;;3.67;1.45;;;7.60;99.90;;;;;;5068252;28;20028;-73
2022/05/28 03:16:08;;;;;;;12.75;1.58;;;7.70;99.90;;;;;;5067517;28;20036;-73
2022/05/28 03:18:34;;;;;;;2.55;1.17;;;7.80;99.90;;;;;;5069246;28;20032;-73
2022/05/28 03:21:00;;;;;;;3.60;1.48;;;7.90;99.90;;;;;;5061987;28;20032;-73
2022/05/28 03:23:27;;;;;;;6.45;1.70;;;8.00;99.90;;;;;;5067684;28;20029;-74
2022/05/28 03:25:53;;;;;;;9.30;1.50;;;8.10;99.90;;;;;;5065933;28;20036;-72
2022/05/28 03:28:19;;;;;;;2.97;1.20;;;8.20;99.90;;;;;;5064463;28;20036;-74
2022/05/28 03:30:45;;;;;;;3.90;1.13;;;8.20;99.90;;;;;;5072981;28;20029;-72
2022/05/28 03:33:11;;;;;;;6.75;1.23;;;8.10;99.90;;;;;;5065310;28;20349;-73
2022/05/28 03:35:39;;;;;;;2.13;0.85;;;7.90;99.90;;;;;;5068011;28;20444;-73
2022/05/28 03:38:06;;;;;;;7.95;1.00;;;7.70;99.90;;;;;;5070340;28;20044;-73
2022/05/28 03:40:33;;;;;;;1.88;0.98;;;7.60;99.90;;;;;;5048760;28;20047;-73
2022/05/28 03:43:00;;;;;;;10.57;1.60;;;7.50;99.90;;;;;;5066095;28;20029;-74
2022/05/28 03:45:27;;;;;;;4.85;1.58;;;7.40;99.90;;;;;;5052279;28;20040;-73
2022/05/28 03:47:54;;;;;;;1.95;1.17;;;7.50;99.90;;;;;;5069998;28;20040;-73
2022/05/28 03:50:20;;;;;;;1.10;0.80;;;7.60;99.90;;;;;;5069590;28;20040;-73
2022/05/28 03:52:47;;;;;;;6.68;1.17;;;7.60;99.90;;;;;;5067221;28;20412;-74
2022/05/28 03:55:13;;;;;;;3.50;1.52;;;7.70;99.90;;;;;;5065126;28;20033;-77
2022/05/28 03:57:39;;;;;;;3.08;1.33;;;7.60;99.90;;;;;;5066043;28;20044;-74
2022/05/28 04:00:06;;;;;;;2.38;1.17;;;7.50;99.90;;;;;;5050989;28;20029;-73
2022/05/28 04:02:32;;;;;;;10.48;1.33;;;7.30;99.90;;;;;;5070434;28;20040;-74
2022/05/28 04:04:58;;;;;;;1.50;0.95;;;7.30;99.90;;;;;;5064459;28;20028;-73
2022/05/28 04:07:25;;;;;;;3.65;1.80;;;7.50;99.90;;;;;;5070154;28;20044;-74
2022/05/28 04:09:51;;;;;;;4.70;1.30;;;7.40;99.90;;;;;;5069180;28;20485;-74
2022/05/28 04:12:17;;;;;;;4.18;1.58;;;7.40;99.90;;;;;;5070863;28;20025;-74
2022/05/28 04:14:44;;;;;;;5.05;1.45;;;7.50;99.90;;;;;;5075086;28;20021;-75
2022/05/28 04:17:10;;;;;;;3.70;0.85;;;7.50;99.90;;;;;;5065857;28;20487;-73
2022/05/28 04:19:37;;;;;;;2.25;1.42;;;7.60;99.90;;;;;;5072008;28;20035;-74
2022/05/28 04:22:04;;;;;;;1.45;1.05;;;7.70;99.90;;;;;;5074607;28;20051;-75
2022/05/28 04:24:30;;;;;;;3.13;1.48;;;7.90;99.90;;;;;;5073594;28;20044;-74
2022/05/28 04:26:56;;;;;;;2.22;1.33;;;8.50;99.90;;;;;;5073659;28;20432;-73
2022/05/28 04:29:22;;;;;;;1.60;1.25;;;9.20;98.50;;;;;;5073193;28;20465;-72
2022/05/28 04:31:48;;;;;;;0.90;0.75;;;9.90;96.10;;;;;;5071250;28;20103;-74
2022/05/28 04:34:14;;;;;;;1.88;0.95;;;10.70;93.60;;;;;;5073620;28;20043;-77
2022/05/28 04:36:41;;;;;;;2.58;1.40;;;11.70;91.00;;;;;;5073593;28;20051;-74
2022/05/28 04:39:07;;;;;;;3.72;1.27;;;13.10;85.20;;;;;;5074095;28;20032;-73
2022/05/28 04:41:33;;;;;;;1.20;0.73;;;13.30;79.50;;;;;;5064595;28;20048;-74
2022/05/28 04:43:59;;;;;;;2.08;1.08;;;13.20;79.30;;;;;;5074331;28;20028;-72
2022/05/28 04:46:26;;;;;;;1.10;0.85;;;13.10;78.10;;;;;;5067283;28;20044;-72
2022/05/28 04:48:52;;;;;;;2.70;1.27;;;13.10;79.00;;;;;;5052289;28;20039;-72
2022/05/28 04:51:18;;;;;;;1.92;1.08;;;13.70;75.90;;;;;;5067643;28;20021;-73
2022/05/28 04:53:45;;;;;;;4.03;1.00;;;14.20;73.20;;;;;;5071201;28;20045;-73
2022/05/28 04:56:14;;;;;;;1.98;1.00;;;14.30;72.40;;;;;;5074515;28;20398;-73
2022/05/28 04:58:41;;;;;;;2.58;1.20;;;14.40;72.50;;;;;;5069885;28;20482;-72
2022/05/28 05:01:11;;;;;;;3.65;1.02;;;14.80;69.50;;;;;;5072470;28;20401;-73
2022/05/28 05:03:37;;;;;;;3.70;1.10;;;14.80;69.60;;;;;;5067687;28;20033;-72
2022/05/28 05:06:03;;;;;;;8.43;1.77;;;15.40;65.80;;;;;;5067317;28;20028;-73
2022/05/28 05:08:30;;;;;;;2.95;1.33;;;15.40;65.00;;;;;;5066027;28;20776;-72
2022/05/28 05:10:56;;;;;;;6.60;1.23;;;15.60;65.50;;;;;;5073509;28;20044;-73
2022/05/28 05:13:23;;;;;;;4.85;1.55;;;16.10;63.90;;;;;;5074470;28;20039;-72
2022/05/28 05:15:49;;;;;;;2.40;0.95;;;16.10;64.60;;;;;;5073066;28;20028;-73
2022/05/28 05:18:15;;;;;;;4.57;1.33;;;17.00;60.10;;;;;;5070248;28;20032;-76
2022/05/28 05:20:41;;;;;;;3.53;1.40;;;17.30;59.80;;;;;;5069139;28;20486;-72
2022/05/28 05:23:08;;;;;;;2.15;1.13;;;17.70;58.90;;;;;;5068352;28;20033;-72
2022/05/28 05:25:34;;;;;;;0.80;0.68;;;18.20;56.30;;;;;;5069262;28;20039;-72
2022/05/28 05:28:00;;;;;;;2.80;1.27;;;17.40;57.60;;;;;;5064907;28;20040;-72
2022/05/28 05:30:27;;;;;;;4.82;1.17;;;16.90;58.20;;;;;;5070520;28;20509;-71
2022/05/28 05:32:53;;;;;;;8.48;1.30;;;17.10;57.30;;;;;;5071964;28;20035;-71
2022/05/28 05:35:19;;;;;;;2.35;1.20;;;16.90;58.90;;;;;;5067375;28;20031;-73
2022/05/28 05:37:45;;;;;;;4.25;1.13;;;18.10;56.80;;;;;;5073539;28;20036;-72
2022/05/28 05:40:12;;;;;;;2.95;1.20;;;18.10;56.10;;;;;;5069669;28;20040;-72
2022/05/28 05:42:38;;;;;;;3.88;1.38;;;17.80;54.10;;;;;;5069041;28;20065;-72
2022/05/28 05:45:06;;;;;;;3.08;1.30;;;17.40;55.40;;;;;;5067928;28;20024;-72
2022/05/28 05:47:33;;;;;;;2.90;1.30;;;17.80;55.10;;;;;;5071657;28;20037;-72
2022/05/28 05:50:00;;;;;;;2.15;0.98;;;17.70;54.80;;;;;;5066412;28;20033;-72
2022/05/28 05:52:26;;;;;;;2.15;1.10;;;17.10;55.60;;;;;;5072467;28;20055;-72
2022/05/28 05:54:52;;;;;;;2.33;1.30;;;17.70;55.60;;;;;;5063773;28;20040;-73
2022/05/28 05:57:19;;;;;;;6.75;1.42;;;18.00;55.20;;;;;;5052445;28;20044;-75
2022/05/28 05:59:45;;;;;;;2.03;1.40;;;18.60;53.90;;;;;;5070240;28;20040;-72
2022/05/28 06:02:12;;;;;;;3.03;1.00;;;19.10;52.10;;;;;;5072274;28;20033;-72
2022/05/28 06:04:39;;;;;;;4.72;2.08;;;18.00;53.30;;;;;;5054092;28;20032;-72
2022/05/28 06:07:06;;;;;;;2.00;0.90;;;18.10;54.00;;;;;;5067830;28;20052;-72
2022/05/28 06:09:32;;;;;;;4.22;1.40;;;17.70;53.60;;;;;;5065664;28;20134;-72
2022/05/28 06:11:59;;;;;;;3.25;1.42;;;17.20;54.20;;;;;;5072718;28;20466;-72
2022/05/28 06:14:25;;;;;;;12.68;1.25;;;16.30;56.40;;;;;;5068430;28;20041;-74
2022/05/28 06:16:51;;;;;;;2.72;1.05;;;16.00;59.00;;;;;;5064644;28;20032;-73
2022/05/28 06:19:17;;;;;;;1.35;1.00;;;16.30;56.50;;;;;;5053091;28;20128;-75
2022/05/28 06:21:44;;;;;;;6.78;1.20;;;16.30;57.60;;;;;;5069435;28;20032;-73
2022/05/28 06:24:10;;;;;;;2.58;1.17;;;15.70;56.80;;;;;;5071622;28;20508;-72
2022/05/28 06:26:37;;;;;;;6.45;0.98;;;15.00;59.10;;;;;;5065757;28;20035;-72
2022/05/28 06:29:03;;;;;;;2.28;0.80;;;15.20;59.20;;;;;;5064552;28;20044;-71
2022/05/28 06:31:29;;;;;;;3.47;1.10;;;15.00;58.80;;;;;;5062711;28;20020;-71
2022/05/28 06:33:56;;;;;;;2.92;0.77;;;14.60;59.50;;;;;;5062482;28;20049;-73
2022/05/28 06:36:22;;;;;;;3.78;1.40;;;14.40;61.40;;;;;;5064704;28;20043;-73
2022/05/28 06:38:48;;;;;;;6.75;1.40;;;14.20;61.30;;;;;;5055027;28;20025;-72
2022/05/28 06:41:14;;;;;;;2.08;1.00;;;13.90;62.30;;;;;;5059410;28;20044;-73
2022/05/28 06:43:41;;;;;;;7.20;1.45;;;13.70;62.90;;;;;;5062545;28;20040;-72
2022/05/28 06:46:09;;;;;;;4.97;1.50;;;13.50;63.50;;;;;;5059074;28;20033;-72
2022/05/28 06:48:36;;;;;;;2.70;1.13;;;13.40;64.20;;;;;;5063411;28;20238;-72
2022/05/28 06:51:03;;;;;;;3.03;1.45;;;13.40;65.20;;;;;;5062576;28;20025;-72
2022/05/28 06:53:37;;;;;;;5.38;1.00;;;13.60;64.50;;;;;;5050620;28;20029;-72
2022/05/28 06:56:05;;;;;;;1.65;0.90;;;13.70;64.40;;;;;;5067477;28;20046;-74
2022/05/28 06:58:31;;;;;;;6.00;1.45;;;13.70;64.30;;;;;;5059796;28;20357;-73
2022/05/28 07:00:59;;;;;;;4.07;1.63;;;14.00;65.00;;;;;;5064120;28;20033;-73
2022/05/28 07:03:27;;;;;;;4.93;1.77;;;14.40;65.00;;;;;;5070769;28;20036;-72
2022/05/28 07:05:54;;;;;;;7.35;1.50;;;14.40;62.50;;;;;;5071559;28;20039;-71
2022/05/28 07:08:21;;;;;;;2.78;1.02;;;14.30;62.90;;;;;;5069303;28;20469;-74
2022/05/28 07:10:53;;;;;;;1.92;0.70;;;14.70;63.00;;;;;;5060052;28;20053;-73
2022/05/28 07:13:21;;;;;;;4.22;1.17;;;15.40;61.30;;;;;;5067995;28;20033;-77
2022/05/28 07:15:47;;;;;;;7.30;1.70;;;16.10;60.50;;;;;;5065765;28;20027;-73
2022/05/28 07:18:14;;;;;;;3.33;1.30;;;16.90;57.70;;;;;;5063225;28;20033;-73
2022/05/28 07:20:41;;;;;;;2.47;1.40;;;16.70;57.30;;;;;;5061456;28;20045;-75
2022/05/28 07:23:20;;;;;;;3.42;1.40;;;16.60;58.30;;;;;;5062572;28;20549;-74
2022/05/28 07:25:47;;;;;;;16.17;1.50;;;17.80;56.70;;;;;;5062767;28;20037;-73
2022/05/28 07:28:28;;;;;;;2.30;1.27;;;17.90;56.20;;;;;;5059210;28;20573;-73
2022/05/28 07:31:05;;;;;;;4.30;1.70;;;17.50;56.30;;;;;;5065417;28;20063;-73
2022/05/28 07:33:34;;;;;;;3.72;1.45;;;17.40;56.10;;;;;;5064443;28;20044;-73
2022/05/28 07:36:02;;;;;;;3.88;1.33;;;17.30;56.70;;;;;;5065612;28;20028;-74
2022/05/28 07:38:31;;;;;;;2.15;1.00;;;17.90;55.80;;;;;;5062798;28;20048;-72
2022/05/28 07:41:00;;;;;;;1.70;1.35;;;17.90;55.30;;;;;;5067452;28;20040;-73
2022/05/28 07:43:26;;;;;;;8.98;1.42;;;17.80;56.30;;;;;;5066524;28;20045;-73
2022/05/28 07:45:52;;;;;;;7.35;1.50;;;16.80;56.80;;;;;;5070676;28;20458;-73
2022/05/28 07:48:19;;;;;;;6.43;0.82;;;16.60;57.90;;;;;;5061741;28;20458;-76
2022/05/28 07:50:45;;;;;;;2.30;1.17;;;17.20;56.80;;;;;;5064812;28;20039;-73
2022/05/28 07:53:12;;;;;;;2.55;0.88;;;17.10;56.80;;;;;;5069699;28;20025;-74
2022/05/28 07:55:39;;;;;;;1.88;1.10;;;17.20;56.50;;;;;;5063886;28;20584;-73
2022/05/28 07:58:08;;;;;;;2.72;1.45;;;16.70;58.40;;;;;;5065670;28;20025;-73
2022/05/28 08:00:40;;;;;;;3.73;1.33;;;16.00;58.10;;;;;;5065898;28;20056;-73
2022/05/28 08:03:07;;;;;;;7.68;1.67;;;16.90;57.50;;;;;;5069027;28;20278;-74
2022/05/28 08:05:33;;;;;;;2.22;1.00;;;18.20;56.40;;;;;;5066524;28;20033;-73
2022/05/28 08:07:59;;;;;;;2.00;0.77;;;17.80;55.60;;;;;;5064007;28;20036;-73
2022/05/28 08:10:26;;;;;;;3.60;1.08;;;16.60;56.90;;;;;;5064012;28;20480;-73
2022/05/28 08:12:52;;;;;;;3.22;0.93;;;15.50;58.90;;;;;;5088076;28;20036;-73
2022/05/28 08:15:18;;;;;;;2.47;1.13;;;15.40;59.10;;;;;;5090508;28;20028;-77
2022/05/28 08:17:44;;;;;;;4.68;1.35;;;16.10;58.40;;;;;;5086036;28;20063;-73
2022/05/28 08:20:11;;;;;;;1.35;0.60;;;18.40;55.50;;;;;;5090653;28;20032;-74
2022/05/28 08:25:22;;;;;;;5.53;1.35;;;20.40;52.30;;;;;;5087818;28;20028;-74
2022/05/28 08:27:48;;;;;;;4.90;1.10;;;19.10;52.90;;;;;;5088104;28;20488;-74
2022/05/28 08:30:14;;;;;;;3.70;1.17;;;17.70;54.50;;;;;;5084551;28;20028;-74
2022/05/28 08:32:40;;;;;;;2.00;1.17;;;16.80;55.40;;;;;;5086606;28;20479;-73
2022/05/28 08:35:07;;;;;;;3.08;1.48;;;16.40;57.10;;;;;;5083373;28;20036;-73
2022/05/28 08:37:33;;;;;;;2.17;0.95;;;15.90;58.40;;;;;;5086393;28;20043;-73
2022/05/28 08:39:59;;;;;;;1.58;0.73;;;15.80;57.10;;;;;;5088724;28;20042;-72
2022/05/28 08:42:27;;;;;;;1.95;0.90;;;15.70;56.40;;;;;;5087456;28;20028;-73
2022/05/28 08:44:55;;;;;;;1.52;0.60;;;15.70;56.30;;;;;;5082586;28;20043;-72
2022/05/28 08:47:32;;;;;;;3.35;1.10;;;16.00;56.50;;;;;;5088942;28;20523;-74
2022/05/28 08:49:58;;;;;;;1.15;0.60;;;16.80;55.10;;;;;;5087656;28;20369;-73
2022/05/28 08:52:52;;;;;;;2.08;0.93;;;17.20;54.70;;;;;;5093350;28;20039;-73
2022/05/28 08:55:23;;;;;;;1.48;0.68;;;17.20;55.00;;;;;;5088874;28;20032;-72
2022/05/28 08:58:06;;;;;;;1.45;0.80;;;16.80;54.90;;;;;;5093364;28;20040;-72
2022/05/28 09:00:48;;;;;;;1.80;0.73;;;16.40;55.80;;;;;;5095016;28;20048;-74
2022/05/28 09:03:36;;;;;;;2.05;0.75;;;16.00;55.30;;;;;;5087238;28;20032;-72
2022/05/28 09:06:10;;;;;;;2.25;0.80;;;15.90;56.10;;;;;;5094948;28;20028;-72
2022/05/28 09:08:43;;;;;;;2.17;0.90;;;16.40;55.00;;;;;;5095238;28;20353;-73
2022/05/28 09:11:24;;;;;;;2.00;0.85;;;17.70;53.30;;;;;;5081447;28;20071;-73
2022/05/28 09:13:53;;;;;;;1.05;0.43;;;17.50;53.10;;;;;;5076301;28;20029;-74
2022/05/28 09:16:21;;;;;;;1.65;0.50;;;17.40;53.40;;;;;;5069596;28;20029;-75
2022/05/28 09:18:49;;;;;;;1.77;0.55;;;17.00;55.40;;;;;;5068162;28;20032;-73
2022/05/28 09:21:16;;;;;;;1.00;0.60;;;17.00;54.80;;;;;;5054111;28;20369;-73
2022/05/28 09:23:51;;;;;;;5.05;0.85;;;16.50;55.70;;;;;;5068145;28;20039;-72
2022/05/28 09:26:38;;;;;;;1.00;0.55;;;16.30;55.80;;;;;;5073274;28;20040;-72
2022/05/28 09:29:21;;;;;;;2.38;0.82;;;15.80;57.10;;;;;;5067454;28;20037;-72
2022/05/28 09:32:20;;;;;;;4.68;0.80;;;16.50;57.00;;;;;;5068436;28;20032;-72
2022/05/28 09:35:23;;;;;;;0.50;0.40;;;17.10;55.30;;;;;;5063191;28;20239;-73
2022/05/28 09:38:15;;;;;;;0.95;0.77;;;17.80;54.20;;;;;;5069004;28;20371;-73
2022/05/28 09:41:09;;;;;;;2.70;0.68;;;18.50;53.50;;;;;;5060622;28;20516;-72
2022/05/28 09:44:07;;;;;;;3.00;1.00;;;18.80;51.80;;;;;;5069290;28;20033;-73
2022/05/28 09:46:34;;;;;;;2.00;1.13;;;18.60;52.90;;;;;;5066651;28;20040;-73
2022/05/28 09:49:05;;;;;;;1.83;1.00;;;18.30;52.20;;;;;;5070112;28;20377;-73
2022/05/28 09:51:33;;;;;;;4.53;0.75;;;18.20;51.60;;;;;;5072854;28;20393;-73
2022/05/28 09:54:22;;;;;;;2.25;0.52;;;17.60;53.50;;;;;;5068654;28;20033;-72
2022/05/28 09:57:03;;;;;;;2.63;0.60;;;17.00;53.80;;;;;;5052003;28;20374;-73
2022/05/28 09:59:35;;;;;;;1.67;0.63;;;16.80;54.10;;;;;;5072117;28;20036;-72
2022/05/28 10:02:14;;;;;;;3.30;0.77;;;17.80;54.50;;;;;;5071730;28;20059;-72
2022/05/28 10:04:49;;;;;;;1.30;0.68;;;18.80;51.60;;;;;;5054577;28;20063;-72
2022/05/28 10:07:26;;;;;;;1.58;0.60;;;19.10;51.90;;;;;;5063780;28;20036;-73
2022/05/28 10:09:55;;;;;;;1.55;0.60;;;19.40;49.80;;;;;;5066618;28;20048;-72
2022/05/28 10:12:30;;;;;;;2.75;0.73;;;19.30;50.30;;;;;;5068885;28;20024;-73
2022/05/28 10:15:16;;;;;;;1.85;0.80;;;19.20;49.90;;;;;;5069009;28;20415;-72
2022/05/28 10:17:45;;;;;;;1.92;0.68;;;18.40;50.20;;;;;;5071601;28;20055;-72
2022/05/28 10:20:21;;;;;;;3.58;0.90;;;17.90;50.30;;;;;;5072859;28;20040;-72
2022/05/28 10:22:51;;;;;;;2.08;0.52;;;18.30;51.30;;;;;;5072360;28;20032;-73
2022/05/28 10:25:38;;;;;;;1.27;0.50;;;18.30;49.50;;;;;;5066956;28;20473;-73
2022/05/28 10:28:06;;;;;;;1.75;0.90;;;18.10;49.80;;;;;;5068883;28;20032;-71
2022/05/28 10:30:32;;;;;;;1.42;0.50;;;17.70;50.70;;;;;;5067394;28;20499;-71
2022/05/28 10:33:04;;;;;;;4.07;1.08;;;17.70;51.50;;;;;;5069191;28;20103;-72
2022/05/28 10:35:31;;;;;;;1.63;0.88;;;18.00;52.10;;;;;;5063354;28;20044;-73
2022/05/28 10:38:16;;;;;;;0.88;0.50;;;17.90;51.90;;;;;;5065530;28;20036;-74
2022/05/28 10:40:54;;;;;;;1.30;0.65;;;17.60;51.80;;;;;;5060347;28;20055;-73
2022/05/28 10:43:28;;;;;;;1.70;0.63;;;17.40;52.10;;;;;;5066474;28;20032;-76
2022/05/28 10:46:09;;;;;;;1.02;0.63;;;17.30;53.10;;;;;;5070423;28;20044;-73
2022/05/28 10:48:47;;;;;;;1.20;0.75;;;18.00;52.50;;;;;;5067660;28;20536;-73
2022/05/28 10:51:20;;;;;;;0.73;0.63;;;18.80;50.20;;;;;;5068259;28;20032;-73
2022/05/28 10:54:12;;;;;;;2.53;0.88;;;18.40;50.90;;;;;;5069485;28;20032;-73
2022/05/28 10:57:04;;;;;;;0.82;0.73;;;18.50;51.60;;;;;;5066419;28;20111;-73
2022/05/28 11:00:08;;;;;;;3.20;1.00;;;18.20;50.70;;;;;;5062429;28;20048;-73
2022/05/28 11:02:53;;;;;;;2.15;0.70;;;18.20;51.20;;;;;;5003226;28;20046;-73
2022/05/28 11:06:00;;;;;;;0.85;0.43;;;18.20;50.80;;;;;;5062951;28;20393;-76
2022/05/28 11:09:04;;;;;;;2.03;1.02;;;18.70;49.70;;;;;;5057665;28;20032;-74
2022/05/28 11:11:54;;;;;;;2.10;0.47;;;18.80;49.90;;;;;;5060797;28;20478;-74
2022/05/28 11:14:41;;;;;;;1.27;0.73;;;18.60;49.10;;;;;;5068341;28;20031;-73
2022/05/28 11:17:32;;;;;;;2.05;0.75;;;18.20;49.60;;;;;;5056978;28;20468;-76
2022/05/28 11:20:19;;;;;;;3.53;0.60;;;17.80;50.60;;;;;;5066960;28;20412;-75
2022/05/28 11:22:54;;;;;;;1.58;0.60;;;17.40;51.10;;;;;;5063414;28;20021;-75
2022/05/28 11:25:51;;;;;;;2.63;0.55;;;17.10;51.40;;;;;;5064164;28;20433;-76
2022/05/28 11:28:47;;;;;;;0.88;0.45;;;17.00;51.70;;;;;;5069114;28;20047;-76
2022/05/28 11:31:30;;;;;;;2.05;0.40;;;17.10;52.50;;;;;;5059892;28;20044;-76
2022/05/28 11:34:06;;;;;;;2.30;0.77;;;17.40;51.80;;;;;;5070031;28;20037;-75
2022/05/28 11:36:38;;;;;;;1.27;0.50;;;17.70;51.00;;;;;;5070763;28;20048;-74
2022/05/28 11:39:37;;;;;;;7.07;1.10;;;18.00;50.60;;;;;;5065242;28;20059;-74
2022/05/28 11:42:29;;;;;;;1.75;0.70;;;18.20;49.80;;;;;;5015208;28;20053;-76
2022/05/28 11:44:57;;;;;;;1.92;0.52;;;18.40;50.10;;;;;;5065659;28;20032;-76
2022/05/28 11:47:35;;;;;;;1.25;0.52;;;18.60;49.70;;;;;;5066596;28;20036;-77
2022/05/28 11:53:19;;;;;;;1.80;0.98;;;20.00;49.10;;;;;;5067762;28;20032;-76
2022/05/28 11:55:49;;;;;;;4.03;0.40;;;20.20;48.20;;;;;;5069082;28;20040;-76
2022/05/28 11:58:22;;;;;;;1.00;0.40;;;19.90;46.40;;;;;;5055133;28;20043;-77
2022/05/28 12:00:54;;;;;;;0.95;0.50;;;19.20;47.30;;;;;;5071812;28;20044;-75
2022/05/28 12:03:31;;;;;;;1.08;0.65;;;19.20;47.70;;;;;;5044859;28;20033;-77
2022/05/28 12:06:03;;;;;;;1.80;0.80;;;19.20;47.70;;;;;;5063040;28;20043;-77
2022/05/28 12:08:35;;;;;;;0.63;0.30;;;19.10;47.40;;;;;;5053367;28;20039;-77
2022/05/28 12:11:08;;;;;;;2.60;0.45;;;19.00;46.80;;;;;;5067807;28;20040;-77
2022/05/28 12:13:35;;;;;;;0.88;0.40;;;18.60;46.80;;;;;;5061240;28;20059;-76
2022/05/28 12:16:12;;;;;;;1.10;0.40;;;18.40;47.20;;;;;;5051562;28;20460;-77
2022/05/28 12:18:42;;;;;;;2.88;0.95;;;18.00;47.60;;;;;;5064315;28;20498;-76
2022/05/28 12:21:09;;;;;;;0.57;0.40;;;17.70;48.20;;;;;;5069231;28;20036;-76
2022/05/28 12:23:41;;;;;;;1.92;0.73;;;17.40;49.00;;;;;;5064862;28;20024;-74
2022/05/28 12:29:25;;;;;;;1.80;0.43;;;17.30;51.00;;;;;;5065431;28;20055;-75
2022/05/28 12:31:51;;;;;;;1.50;0.52;;;17.50;50.80;;;;;;5073530;28;20033;-75
2022/05/28 12:34:23;;;;;;;1.88;0.90;;;17.70;50.70;;;;;;5067518;28;20488;-76
2022/05/28 12:36:53;;;;;;;0.85;0.47;;;18.10;50.20;;;;;;5070880;28;20029;-74
2022/05/28 12:39:42;;;;;;;0.93;0.55;;;18.60;50.60;;;;;;5064636;28;20445;-75
2022/05/28 12:42:21;;;;;;;0.73;0.40;;;19.40;49.80;;;;;;5066850;28;20032;-77
2022/05/28 12:44:50;;;;;;;2.03;0.60;;;19.50;49.30;;;;;;5074447;28;20043;-76
2022/05/28 12:47:25;;;;;;;1.20;0.70;;;19.20;48.40;;;;;;5073360;28;20039;-77
2022/05/28 12:50:20;;;;;;;1.50;0.70;;;18.50;49.60;;;;;;5075141;28;20382;-77
2022/05/28 12:53:15;;;;;;;2.08;0.55;;;17.90;50.50;;;;;;5066287;28;20033;-76
2022/05/28 12:55:42;;;;;;;1.10;0.30;;;17.80;51.20;;;;;;5068122;28;20033;-76
2022/05/28 12:58:11;;;;;;;0.50;0.40;;;17.60;50.80;;;;;;5074140;28;20043;-77
2022/05/28 13:01:37;;;;;;;1.00;0.70;;;17.70;50.30;;;;;;5073618;28;20486;-76
2022/05/28 13:04:25;;;;;;;1.88;0.50;;;17.60;49.30;;;;;;5025902;28;20037;-77
2022/05/28 13:06:55;;;;;;;1.30;0.40;;;17.70;48.90;;;;;;5069199;28;20039;-78
2022/05/28 13:09:28;;;;;;;1.20;0.52;;;17.90;47.70;;;;;;5053720;28;20036;-77
2022/05/28 13:12:12;;;;;;;0.82;0.47;;;17.80;48.40;;;;;;5072267;28;20047;-77
2022/05/28 13:15:00;;;;;;;0.98;0.55;;;18.70;46.20;;;;;;5064755;28;20378;-78
2022/05/28 13:18:03;;;;;;;0.77;0.40;;;19.10;47.00;;;;;;5065173;28;20043;-77
2022/05/28 13:20:56;;;;;;;4.85;0.50;;;19.20;46.70;;;;;;5074247;28;20413;-75
2022/05/28 13:23:31;;;;;;;0.63;0.50;;;19.40;46.10;;;;;;5087270;28;20032;-76
2022/05/28 13:26:15;;;;;;;1.92;0.57;;;19.60;46.50;;;;;;5067596;28;20051;-75